Time;durP1;ratioP1;P1;durP2;ratioP2;P2;SDS_P1;SDS_P2;PMS_P1;PMS_P2;Temp;Humidity;BMP_temperature;BMP_pressure;BME280_temperature;BME280_humidity;BME280_pressure;Samples;Min_cycle;Max_cycle;Signal;HPM_P1;HPM_P2
2023/03/22 00:00:16;;;;;;;12.98;3.60;;;;;;;8.58;85.79;101088.97;6093796;19;20098;-74
2023/03/22 00:02:21;;;;;;;10.23;3.15;;;;;;;8.58;85.87;101083.72;6099295;19;20642;-74
2023/03/22 00:04:28;;;;;;;13.20;4.32;;;;;;;8.56;86.26;101091.66;6098594;19;20050;-74
2023/03/22 00:06:36;;;;;;;11.00;3.20;;;;;;;8.51;86.23;101085.69;6099797;19;21451;-74
2023/03/22 00:08:41;;;;;;;13.48;5.18;;;;;;;8.50;86.32;101085.72;6099113;19;20011;-74
2023/03/22 00:10:49;;;;;;;9.32;3.35;;;;;;;8.45;86.76;101092.84;6098366;19;20010;-74
2023/03/22 00:12:54;;;;;;;12.95;3.58;;;;;;;8.40;86.66;101085.13;6096299;19;20018;-74
2023/03/22 00:14:59;;;;;;;19.33;3.60;;;;;;;8.40;86.88;101081.63;6098491;19;20013;-74
2023/03/22 00:17:04;;;;;;;13.32;3.88;;;;;;;8.41;86.61;101083.38;6098145;19;20055;-74
2023/03/22 00:19:09;;;;;;;14.73;3.83;;;;;;;8.40;86.73;101081.63;6097995;19;20308;-74
2023/03/22 00:21:16;;;;;;;11.35;3.55;;;;;;;8.36;86.72;101073.84;6095173;19;20150;-74
2023/03/22 00:23:23;;;;;;;9.15;3.20;;;;;;;8.34;87.12;101067.78;6098606;19;20022;-74
2023/03/22 00:25:28;;;;;;;11.77;3.90;;;;;;;8.40;86.43;101065.91;6098612;19;20022;-74
2023/03/22 00:27:33;;;;;;;7.80;3.72;;;;;;;8.38;86.70;101054.63;6097979;19;20006;-74
2023/03/22 00:29:39;;;;;;;13.82;3.72;;;;;;;8.40;86.56;101051.09;6098417;19;20716;-74
2023/03/22 00:31:44;;;;;;;14.02;3.80;;;;;;;8.33;86.32;101045.13;6097875;19;20030;-73
2023/03/22 00:33:49;;;;;;;11.50;3.45;;;;;;;8.41;86.38;101044.09;6099449;19;20015;-74
2023/03/22 00:35:55;;;;;;;11.48;3.92;;;;;;;8.44;85.78;101044.84;6099141;19;20017;-74
2023/03/22 00:38:04;;;;;;;11.05;3.83;;;;;;;8.36;86.41;101037.16;6097063;19;20239;-74
2023/03/22 00:40:14;;;;;;;12.70;3.58;;;;;;;8.35;86.53;101037.22;6096971;19;20047;-74
2023/03/22 00:42:21;;;;;;;12.40;4.03;;;;;;;8.37;86.03;101035.41;6093615;19;20019;-74
2023/03/22 00:44:26;;;;;;;15.70;3.58;;;;;;;8.40;86.02;101032.75;6097670;19;20271;-74
2023/03/22 00:46:31;;;;;;;10.85;4.20;;;;;;;8.52;85.35;101023.69;6097070;19;20066;-74
2023/03/22 00:48:36;;;;;;;11.25;4.03;;;;;;;8.54;85.28;101027.97;6095572;19;20515;-75
2023/03/22 00:50:43;;;;;;;12.07;3.72;;;;;;;8.56;85.21;101020.06;6098738;19;20467;-73
2023/03/22 00:52:48;;;;;;;13.10;3.85;;;;;;;8.60;84.78;101019.06;6097777;19;20502;-74
2023/03/22 00:54:53;;;;;;;11.82;3.78;;;;;;;8.69;84.67;101024.06;6096983;19;20015;-74
2023/03/22 00:57:00;;;;;;;6.75;3.17;;;;;;;8.78;84.08;101007.19;6097982;19;20027;-74
2023/03/22 00:59:05;;;;;;;12.68;3.83;;;;;;;8.81;83.79;101007.09;6099763;19;20006;-74
2023/03/22 01:01:12;;;;;;;11.60;4.28;;;;;;;8.85;83.54;101010.50;6097033;19;20011;-74
2023/03/22 01:03:20;;;;;;;10.07;4.10;;;;;;;8.90;83.37;100995.47;6097708;19;20011;-73
2023/03/22 01:05:27;;;;;;;11.30;3.05;;;;;;;8.86;83.42;100984.22;6099668;19;20023;-73
2023/03/22 01:07:32;;;;;;;12.95;3.63;;;;;;;8.84;83.21;100985.19;6096585;19;20011;-74
2023/03/22 01:09:36;;;;;;;12.35;3.03;;;;;;;8.87;83.32;100985.94;6098347;19;20043;-74
2023/03/22 01:11:41;;;;;;;15.10;4.00;;;;;;;8.92;83.12;100980.56;6098219;19;20043;-74
2023/03/22 01:13:49;;;;;;;13.07;3.25;;;;;;;8.86;83.20;100975.50;6093782;19;20021;-74
2023/03/22 01:15:55;;;;;;;7.85;2.88;;;;;;;8.90;82.76;100970.13;6096832;19;20025;-74
2023/03/22 01:18:00;;;;;;;12.60;3.40;;;;;;;8.97;82.44;100965.53;6098145;19;20095;-75
2023/03/22 01:20:08;;;;;;;7.45;2.83;;;;;;;9.06;81.92;100957.41;6097123;19;20025;-73
2023/03/22 01:22:13;;;;;;;11.07;3.05;;;;;;;9.00;82.23;100955.84;6096010;19;20018;-73
2023/03/22 01:24:20;;;;;;;8.75;3.78;;;;;;;8.99;82.10;100954.09;6094006;19;20015;-74
2023/03/22 01:26:25;;;;;;;10.25;2.90;;;;;;;9.06;81.59;100944.28;6094944;19;20555;-73
2023/03/22 01:28:30;;;;;;;12.98;3.72;;;;;;;9.04;81.69;100935.59;6093005;19;20021;-74
2023/03/22 01:30:40;;;;;;;8.57;4.55;;;;;;;9.01;82.34;100946.19;6098752;19;20312;-72
2023/03/22 01:32:45;;;;;;;11.48;3.17;;;;;;;9.04;81.98;100943.47;6098587;19;20011;-73
2023/03/22 01:34:51;;;;;;;12.50;3.92;;;;;;;9.02;82.05;100937.41;6099124;19;20014;-73
2023/03/22 01:36:56;;;;;;;8.85;3.08;;;;;;;9.02;81.90;100933.03;6098923;19;20006;-73
2023/03/22 01:39:03;;;;;;;10.95;3.40;;;;;;;9.00;82.35;100923.50;6096804;19;20009;-72
2023/03/22 01:41:11;;;;;;;8.35;2.50;;;;;;;9.08;81.85;100918.00;6104312;19;20396;-74
2023/03/22 01:43:18;;;;;;;9.93;2.85;;;;;;;9.11;81.95;100915.28;6109798;19;21396;-73
2023/03/22 01:45:39;;;;;;;7.68;2.80;;;;;;;9.16;81.57;100911.63;6114892;19;20090;-73
2023/03/22 01:47:47;;;;;;;8.27;2.83;;;;;;;9.14;81.91;100910.81;6115902;19;20021;-73
2023/03/22 01:49:52;;;;;;;8.82;3.88;;;;;;;9.12;82.56;100917.84;6116553;19;20022;-72
2023/03/22 01:52:02;;;;;;;13.32;4.18;;;;;;;9.13;82.52;100911.69;6121253;19;20090;-72
2023/03/22 01:54:10;;;;;;;12.63;3.88;;;;;;;9.15;82.80;100912.50;6117742;19;20021;-73
2023/03/22 01:56:15;;;;;;;8.57;3.38;;;;;;;9.19;83.15;100911.50;6118350;19;20691;-72
2023/03/22 01:58:20;;;;;;;14.15;4.22;;;;;;;9.30;82.89;100900.66;6116099;19;20018;-72
2023/03/22 02:00:25;;;;;;;10.70;4.05;;;;;;;9.28;83.35;100901.63;6116054;19;20014;-73
2023/03/22 02:02:33;;;;;;;10.95;3.90;;;;;;;9.28;83.24;100901.63;6114191;19;20738;-73
2023/03/22 02:04:40;;;;;;;11.55;4.70;;;;;;;9.25;83.48;100896.47;6114524;19;20304;-73
2023/03/22 02:06:46;;;;;;;11.30;4.88;;;;;;;9.34;83.62;100901.41;6105600;19;20018;-74
2023/03/22 02:08:51;;;;;;;12.45;4.50;;;;;;;9.29;83.69;100893.69;6107605;19;20013;-74
2023/03/22 02:10:56;;;;;;;12.60;4.70;;;;;;;9.30;83.47;100890.16;6105524;19;20014;-73
2023/03/22 02:13:52;;;;;;;12.82;5.07;;;;;;;9.32;83.60;100888.34;6105880;19;20018;-74
2023/03/22 02:16:07;;;;;;;12.85;4.68;;;;;;;9.36;83.91;100878.59;6102035;19;20188;-74
2023/03/22 02:18:28;;;;;;;14.43;5.88;;;;;;;9.31;83.83;100877.91;6102534;19;20014;-74
2023/03/22 02:21:08;;;;;;;10.27;5.20;;;;;;;9.31;84.04;100870.03;6095994;19;20090;-74
2023/03/22 02:23:32;;;;;;;16.00;5.55;;;;;;;9.27;84.19;100865.78;6100441;19;20019;-74
2023/03/22 02:26:14;;;;;;;13.60;5.28;;;;;;;9.26;84.44;100869.34;6101954;19;20018;-74
2023/03/22 02:28:28;;;;;;;11.52;6.03;;;;;;;9.19;84.99;100869.56;6098214;19;20110;-73
2023/03/22 02:31:07;;;;;;;11.40;6.00;;;;;;;9.21;85.02;100875.59;6102034;19;20097;-74
2023/03/22 02:33:32;;;;;;;11.68;4.82;;;;;;;9.13;85.36;100867.13;6099435;19;20015;-74
2023/03/22 02:36:05;;;;;;;12.50;5.50;;;;;;;9.11;85.84;100878.56;6101793;19;20089;-74
2023/03/22 02:38:41;;;;;;;20.63;6.90;;;;;;;9.17;85.71;100867.91;6101768;19;21199;-74
2023/03/22 02:40:54;;;;;;;13.20;5.90;;;;;;;9.09;85.82;100881.28;6096750;19;20018;-74
2023/03/22 02:43:06;;;;;;;14.55;6.10;;;;;;;9.00;86.04;100871.97;6099510;19;20078;-74
2023/03/22 02:45:17;;;;;;;19.38;6.75;;;;;;;9.07;86.70;100866.50;6103497;19;20014;-74
2023/03/22 02:47:26;;;;;;;17.38;7.35;;;;;;;9.12;86.25;100860.19;6101278;19;20010;-74
2023/03/22 02:49:39;;;;;;;15.45;7.03;;;;;;;9.08;86.50;100852.47;6102087;19;20018;-74
2023/03/22 02:51:48;;;;;;;16.67;7.43;;;;;;;9.06;86.65;100860.41;6098522;19;20655;-74
2023/03/22 02:53:58;;;;;;;12.57;6.75;;;;;;;9.05;87.15;100857.81;6100449;19;20300;-75
2023/03/22 02:56:09;;;;;;;16.83;7.68;;;;;;;9.10;86.95;100856.75;6100840;19;20014;-74
2023/03/22 02:58:20;;;;;;;18.02;7.20;;;;;;;9.05;87.03;100856.06;6101241;19;20025;-74
2023/03/22 03:00:27;;;;;;;12.98;7.18;;;;;;;9.12;86.75;100843.59;6098552;19;20015;-74
2023/03/22 03:02:34;;;;;;;15.32;7.28;;;;;;;9.22;86.79;100848.47;6101262;19;20070;-75
2023/03/22 03:04:44;;;;;;;17.80;7.07;;;;;;;9.15;86.78;100843.50;6106798;19;20014;-74
2023/03/22 03:06:52;;;;;;;14.07;7.18;;;;;;;9.23;86.47;100847.56;6103937;19;20615;-74
2023/03/22 03:09:01;;;;;;;19.20;7.00;;;;;;;9.21;86.73;100844.13;6102940;19;20006;-74
2023/03/22 03:11:09;;;;;;;14.73;6.43;;;;;;;9.15;86.75;100844.34;6102213;19;20031;-74
2023/03/22 03:13:15;;;;;;;18.08;7.70;;;;;;;9.17;86.61;100834.66;6101052;19;20029;-74
2023/03/22 03:15:22;;;;;;;17.17;7.63;;;;;;;9.13;86.93;100835.66;6099729;19;20035;-74
2023/03/22 03:17:43;;;;;;;17.77;7.03;;;;;;;9.11;87.10;100837.50;6097522;19;20035;-74
2023/03/22 03:19:57;;;;;;;22.08;7.82;;;;;;;9.12;86.92;100831.34;6099998;19;20042;-74
2023/03/22 03:22:08;;;;;;;16.85;7.45;;;;;;;9.10;87.04;100832.31;6100175;19;20743;-75
2023/03/22 03:24:24;;;;;;;16.42;7.40;;;;;;;9.09;87.43;100834.09;6099023;19;20105;-74
2023/03/22 03:26:40;;;;;;;16.10;7.70;;;;;;;9.11;87.49;100834.00;6096791;19;20015;-74
2023/03/22 03:28:53;;;;;;;16.42;9.15;;;;;;;9.09;87.72;100828.84;6100572;19;20055;-73
2023/03/22 03:31:05;;;;;;;17.65;8.05;;;;;;;9.11;87.62;100826.16;6101138;19;20014;-73
2023/03/22 03:33:15;;;;;;;20.47;9.53;;;;;;;9.07;87.96;100827.19;6099711;19;20024;-73
2023/03/22 03:35:24;;;;;;;20.05;8.63;;;;;;;9.12;87.82;100836.59;6100208;19;20256;-73
2023/03/22 03:37:32;;;;;;;22.25;9.25;;;;;;;9.15;87.71;100826.00;6099738;19;20267;-73
2023/03/22 03:39:45;;;;;;;17.55;8.52;;;;;;;9.06;87.84;100828.94;6099303;19;20030;-73
2023/03/22 03:41:54;;;;;;;;;;;;;;;9.06;88.07;100834.19;6098412;19;20039;-73
2023/03/22 03:44:00;;;;;;;16.88;8.32;;;;;;;9.07;87.77;100821.94;6099196;19;19923;-73
2023/03/22 03:46:06;;;;;;;23.63;9.73;;;;;;;9.02;88.08;100817.69;6100224;19;20028;-73
2023/03/22 03:48:16;;;;;;;23.00;9.73;;;;;;;9.08;87.76;100819.25;6096355;19;20014;-73
2023/03/22 03:50:21;;;;;;;18.63;9.05;;;;;;;9.00;88.15;100822.16;6096014;19;20051;-73
2023/03/22 03:52:28;;;;;;;20.75;9.18;;;;;;;9.02;88.24;100828.19;6099401;19;20022;-73
2023/03/22 03:54:33;;;;;;;20.15;10.07;;;;;;;9.03;88.18;100821.19;6099498;19;20019;-73
2023/03/22 03:56:40;;;;;;;19.67;10.10;;;;;;;9.04;88.16;100820.28;6100092;19;20703;-74
2023/03/22 03:58:48;;;;;;;21.88;9.25;;;;;;;9.07;88.07;100825.41;6099032;19;20018;-73
2023/03/22 04:00:54;;;;;;;21.30;10.10;;;;;;;9.11;88.02;100827.03;6097630;19;20515;-73
2023/03/22 04:02:59;;;;;;;19.77;9.07;;;;;;;9.06;87.86;100821.09;6097655;19;20423;-73
2023/03/22 04:05:04;;;;;;;23.30;9.88;;;;;;;9.08;87.85;100819.25;6105031;19;20181;-74
2023/03/22 04:07:09;;;;;;;15.63;9.20;;;;;;;9.06;88.13;100815.84;6098712;19;20039;-73
2023/03/22 04:09:14;;;;;;;15.98;8.57;;;;;;;9.11;88.01;100820.91;6098644;19;20027;-73
2023/03/22 04:11:19;;;;;;;17.17;8.27;;;;;;;9.10;88.08;100824.44;6098349;19;20494;-73
2023/03/22 04:13:24;;;;;;;22.23;9.88;;;;;;;9.07;87.93;100814.91;6077027;19;20021;-73
2023/03/22 04:15:31;;;;;;;21.10;9.63;;;;;;;9.10;87.50;100814.81;6098430;19;20006;-73
2023/03/22 04:17:36;;;;;;;21.13;9.30;;;;;;;9.06;87.63;100807.97;6096819;19;20089;-73
2023/03/22 04:19:43;;;;;;;16.20;8.60;;;;;;;9.02;88.12;100809.84;6098029;19;20014;-74
2023/03/22 04:21:48;;;;;;;16.23;7.97;;;;;;;9.00;87.93;100811.66;6099422;19;20256;-74
2023/03/22 04:23:54;;;;;;;23.45;10.68;;;;;;;8.99;88.16;100809.09;6097237;19;20033;-73
2023/03/22 04:25:59;;;;;;;28.10;9.70;;;;;;;8.96;88.07;100803.97;6098472;19;20018;-74
2023/03/22 04:28:04;;;;;;;22.17;9.27;;;;;;;8.98;88.15;100810.00;6098941;19;20023;-74
2023/03/22 04:30:11;;;;;;;18.35;8.45;;;;;;;9.03;87.69;100797.59;6097787;19;20551;-73
2023/03/22 04:32:25;;;;;;;20.92;9.10;;;;;;;9.00;87.83;100797.69;6094749;19;20014;-74
2023/03/22 04:34:30;;;;;;;19.20;8.75;;;;;;;8.96;87.60;100786.47;6098723;19;20546;-74
2023/03/22 04:36:38;;;;;;;14.25;7.22;;;;;;;8.98;87.50;100797.75;6099139;19;20022;-73
2023/03/22 04:38:43;;;;;;;20.52;8.73;;;;;;;8.95;87.75;100790.00;6100604;19;20024;-74
2023/03/22 04:40:48;;;;;;;20.27;7.63;;;;;;;9.00;87.11;100788.09;6100074;19;20007;-73
2023/03/22 04:42:56;;;;;;;18.92;8.10;;;;;;;8.96;87.16;100793.47;6105558;19;20021;-74
2023/03/22 04:45:03;;;;;;;15.13;7.47;;;;;;;8.85;87.83;100787.75;6111403;19;20051;-73
2023/03/22 04:47:08;;;;;;;18.75;8.18;;;;;;;8.82;87.72;100782.59;6111519;19;20027;-74
2023/03/22 04:49:15;;;;;;;12.15;7.18;;;;;;;8.88;87.35;100782.41;6112329;19;20010;-73
2023/03/22 04:51:20;;;;;;;22.30;7.63;;;;;;;8.85;87.25;100783.38;6116305;19;20096;-73
2023/03/22 04:53:26;;;;;;;16.13;6.18;;;;;;;8.95;86.76;100778.63;6113022;19;20025;-72
2023/03/22 04:55:32;;;;;;;18.00;7.32;;;;;;;8.93;87.08;100780.47;6111010;19;20015;-74
2023/03/22 04:57:38;;;;;;;16.70;7.63;;;;;;;8.96;86.54;100780.38;6111346;19;20026;-72
2023/03/22 04:59:43;;;;;;;14.88;6.53;;;;;;;8.93;86.76;100785.72;6113069;19;20014;-73
2023/03/22 05:01:48;;;;;;;18.92;7.85;;;;;;;8.93;86.58;100780.47;6111864;19;20014;-73
2023/03/22 05:03:53;;;;;;;13.02;6.15;;;;;;;8.93;86.38;100773.47;6104893;19;20042;-73
2023/03/22 05:06:02;;;;;;;13.85;6.03;;;;;;;8.93;86.71;100783.09;6104511;19;20527;-73
2023/03/22 05:08:08;;;;;;;13.40;6.40;;;;;;;8.96;86.40;100777.75;6102341;19;20019;-74
2023/03/22 05:10:13;;;;;;;17.33;6.60;;;;;;;8.97;85.92;100767.19;6101952;19;20229;-73
2023/03/22 05:12:18;;;;;;;16.52;6.97;;;;;;;9.00;86.15;100772.34;6097852;19;20046;-73
2023/03/22 05:14:23;;;;;;;16.98;6.82;;;;;;;8.97;85.78;100776.81;6100078;19;20027;-74
2023/03/22 05:16:28;;;;;;;12.65;7.45;;;;;;;9.04;85.49;100765.22;6104204;19;20014;-73
2023/03/22 05:18:33;;;;;;;16.23;7.25;;;;;;;8.97;85.73;100772.44;6105317;19;20023;-74
2023/03/22 05:20:38;;;;;;;15.20;7.45;;;;;;;8.98;85.77;100770.69;6104584;19;20046;-74
2023/03/22 05:22:49;;;;;;;15.25;6.60;;;;;;;8.94;85.56;100762.06;6105192;19;20014;-75
2023/03/22 05:24:54;;;;;;;16.23;6.78;;;;;;;9.08;84.84;100768.59;6102893;19;20622;-74
2023/03/22 05:26:59;;;;;;;15.45;6.10;;;;;;;8.99;85.22;100767.16;6103697;19;20006;-74
2023/03/22 05:29:07;;;;;;;16.83;6.50;;;;;;;8.95;85.06;100769.03;6104281;19;20648;-74
2023/03/22 05:31:14;;;;;;;14.00;6.07;;;;;;;8.93;85.21;100749.03;6103589;19;20019;-72
2023/03/22 05:33:21;;;;;;;13.07;5.72;;;;;;;8.88;85.47;100761.44;6101163;19;20717;-72
2023/03/22 05:35:26;;;;;;;9.82;4.68;;;;;;;8.92;84.96;100748.16;6103950;19;20015;-73
2023/03/22 05:37:31;;;;;;;12.43;4.65;;;;;;;8.88;85.43;100750.97;6103940;19;20039;-73
2023/03/22 05:39:38;;;;;;;11.40;5.18;;;;;;;8.95;84.70;100753.31;6102858;19;20021;-73
2023/03/22 05:41:43;;;;;;;10.32;4.32;;;;;;;8.88;85.36;100753.56;6099978;19;20031;-73
2023/03/22 05:43:49;;;;;;;20.05;5.70;;;;;;;8.92;84.95;100745.53;6102534;19;20023;-73
2023/03/22 05:45:54;;;;;;;14.48;3.67;;;;;;;8.93;84.38;100742.03;6101945;19;20007;-74
2023/03/22 05:47:59;;;;;;;14.05;4.88;;;;;;;9.06;84.04;100738.94;6100847;19;20011;-74
2023/03/22 05:50:04;;;;;;;19.25;4.82;;;;;;;9.08;83.36;100745.84;6103294;19;20014;-74
2023/03/22 05:52:08;;;;;;;11.73;3.42;;;;;;;9.04;83.81;100740.78;6102523;19;20022;-74
2023/03/22 05:54:13;;;;;;;9.57;3.80;;;;;;;9.06;83.59;100739.81;6102946;19;20025;-74
2023/03/22 05:56:24;;;;;;;12.45;3.80;;;;;;;9.05;83.68;100745.09;6100014;19;20701;-75
2023/03/22 05:58:29;;;;;;;13.57;3.78;;;;;;;9.04;83.96;100744.25;6103067;19;20042;-73
2023/03/22 06:00:34;;;;;;;9.77;3.53;;;;;;;9.06;83.88;100745.06;6101865;19;20026;-73
2023/03/22 06:02:39;;;;;;;9.90;3.45;;;;;;;9.07;83.47;100744.16;6103517;19;20708;-74
2023/03/22 06:04:45;;;;;;;11.25;3.40;;;;;;;9.11;83.50;100747.50;6102286;19;20771;-73
2023/03/22 06:06:52;;;;;;;10.70;3.50;;;;;;;9.12;83.41;100750.06;6103758;19;20025;-74
2023/03/22 06:08:57;;;;;;;13.45;3.55;;;;;;;9.13;83.26;100749.16;6102907;19;20017;-75
2023/03/22 06:11:23;;;;;;;7.68;3.50;;;;;;;9.19;83.38;100742.88;6103887;19;20006;-74
2023/03/22 06:13:28;;;;;;;11.60;3.55;;;;;;;9.18;83.36;100744.59;6102712;19;20021;-74
2023/03/22 06:15:33;;;;;;;13.90;3.60;;;;;;;9.19;83.16;100745.50;6102746;19;20756;-74
2023/03/22 06:17:38;;;;;;;10.63;3.53;;;;;;;9.21;83.19;100744.50;6102389;19;20010;-74
2023/03/22 06:19:43;;;;;;;10.48;3.20;;;;;;;9.27;83.05;100746.06;6101478;19;20015;-74
2023/03/22 06:21:51;;;;;;;12.52;3.72;;;;;;;9.32;82.39;100730.13;6102510;19;20619;-74
2023/03/22 06:23:56;;;;;;;12.55;4.10;;;;;;;9.32;82.91;100738.88;6100896;19;20010;-74
2023/03/22 06:26:00;;;;;;;11.85;4.10;;;;;;;9.27;82.78;100732.94;6101437;19;20250;-74
2023/03/22 06:28:08;;;;;;;9.85;3.20;;;;;;;9.32;82.75;100749.38;6102238;19;20014;-74
2023/03/22 06:30:17;;;;;;;10.95;4.00;;;;;;;9.30;82.78;100735.44;6103013;19;20047;-74
2023/03/22 06:32:23;;;;;;;9.73;3.00;;;;;;;9.29;82.83;100738.13;6096754;19;20018;-74
2023/03/22 06:34:28;;;;;;;12.65;3.25;;;;;;;9.28;82.94;100734.66;6101560;19;20056;-74
2023/03/22 06:36:33;;;;;;;11.40;3.13;;;;;;;9.27;82.99;100753.03;6101823;19;20630;-74
2023/03/22 06:38:38;;;;;;;8.98;3.20;;;;;;;9.31;82.82;100741.53;6099058;19;20092;-73
2023/03/22 06:40:43;;;;;;;10.55;3.60;;;;;;;9.30;83.17;100737.22;6105940;19;20013;-73
2023/03/22 06:42:48;;;;;;;19.15;5.20;;;;;;;9.31;82.66;100731.06;6101076;19;20465;-73
2023/03/22 06:44:55;;;;;;;8.85;3.67;;;;;;;9.32;82.79;100735.38;6077299;19;20010;-72
2023/03/22 06:47:00;;;;;;;8.93;3.15;;;;;;;9.33;82.94;100731.88;6100094;19;20018;-75
2023/03/22 06:49:06;;;;;;;14.05;3.83;;;;;;;9.34;82.78;100737.03;6100880;19;20021;-74
2023/03/22 06:51:11;;;;;;;11.80;3.33;;;;;;;9.40;82.77;100738.56;6099691;19;20502;-73
2023/03/22 06:53:16;;;;;;;16.40;3.72;;;;;;;9.42;82.91;100739.38;6101545;19;20523;-73
2023/03/22 06:55:21;;;;;;;18.95;4.47;;;;;;;9.45;82.73;100747.13;6101420;19;20300;-73
2023/03/22 06:57:26;;;;;;;13.98;3.53;;;;;;;9.49;82.66;100735.63;6099498;19;20044;-75
2023/03/22 06:59:31;;;;;;;12.43;3.30;;;;;;;9.58;82.49;100753.63;6101011;19;20007;-73
2023/03/22 07:01:38;;;;;;;9.93;2.95;;;;;;;9.58;82.36;100732.63;6103459;19;20018;-74
2023/03/22 07:03:43;;;;;;;9.40;3.10;;;;;;;9.63;81.90;100749.06;6101840;19;20030;-74
2023/03/22 07:05:48;;;;;;;10.77;3.65;;;;;;;9.66;81.92;100741.09;6102462;19;20003;-73
2023/03/22 07:07:53;;;;;;;10.02;3.42;;;;;;;9.65;81.86;100739.38;6102151;19;20017;-74
2023/03/22 07:09:57;;;;;;;8.23;3.25;;;;;;;9.68;81.90;100733.16;6101235;19;20011;-74
2023/03/22 07:12:05;;;;;;;11.02;3.30;;;;;;;9.66;81.82;100727.97;6101115;19;20022;-73
2023/03/22 07:14:11;;;;;;;11.23;3.33;;;;;;;9.71;82.14;100732.16;6100827;19;20039;-73
2023/03/22 07:16:16;;;;;;;9.85;3.10;;;;;;;9.76;81.76;100741.56;6098587;19;20707;-75
2023/03/22 07:18:26;;;;;;;15.13;3.72;;;;;;;9.85;81.59;100737.75;6099909;19;20658;-74
2023/03/22 07:20:35;;;;;;;16.35;4.22;;;;;;;9.93;81.12;100732.22;6100424;19;20687;-74
2023/03/22 07:22:40;;;;;;;13.85;4.07;;;;;;;9.88;81.02;100729.75;6102093;19;20486;-74
2023/03/22 07:24:45;;;;;;;10.88;3.72;;;;;;;10.00;80.87;100737.13;6098941;19;20499;-73
2023/03/22 07:27:01;;;;;;;13.23;3.00;;;;;;;10.05;80.60;100729.06;6099410;19;20097;-73
2023/03/22 07:29:06;;;;;;;18.88;3.78;;;;;;;10.07;80.65;100735.97;6100524;19;20228;-74
2023/03/22 07:31:13;;;;;;;8.98;3.25;;;;;;;9.98;80.76;100725.84;6099570;19;20728;-73
2023/03/22 07:33:18;;;;;;;10.55;3.90;;;;;;;10.00;81.12;100734.50;6098728;19;20018;-74
2023/03/22 07:35:28;;;;;;;9.63;3.38;;;;;;;10.01;80.55;100724.88;6099988;19;20582;-73
2023/03/22 07:37:33;;;;;;;6.40;3.58;;;;;;;9.96;80.53;100729.47;6099257;19;20535;-74
2023/03/22 07:39:38;;;;;;;7.88;2.88;;;;;;;10.02;80.53;100727.44;6101288;19;20048;-73
2023/03/22 07:41:43;;;;;;;12.23;2.90;;;;;;;10.03;80.89;100736.16;6104847;19;20011;-73
2023/03/22 07:43:48;;;;;;;12.50;3.60;;;;;;;10.03;80.84;100742.28;6102891;19;20086;-73
2023/03/22 07:46:05;;;;;;;13.52;2.92;;;;;;;9.98;81.03;100740.72;6104656;19;20017;-73
2023/03/22 07:48:12;;;;;;;9.15;3.03;;;;;;;9.98;81.52;100745.97;6113052;19;20006;-76
2023/03/22 07:50:17;;;;;;;12.95;3.30;;;;;;;9.98;81.94;100735.47;6109965;19;20011;-74
2023/03/22 07:52:24;;;;;;;9.38;2.95;;;;;;;9.98;82.11;100738.97;6115608;19;20014;-73
2023/03/22 07:54:29;;;;;;;12.85;3.13;;;;;;;9.95;81.61;100735.59;6113712;19;20014;-73
2023/03/22 07:56:38;;;;;;;6.63;2.83;;;;;;;9.94;81.77;100731.28;6112353;19;20315;-74
2023/03/22 07:58:43;;;;;;;14.13;4.10;;;;;;;9.94;82.22;100734.75;6112386;19;20021;-74
2023/03/22 08:00:48;;;;;;;10.98;3.30;;;;;;;9.91;81.93;100734.03;6110127;19;20152;-73
2023/03/22 08:02:53;;;;;;;10.55;3.97;;;;;;;9.86;82.17;100734.19;6113508;19;20010;-74
2023/03/22 08:04:58;;;;;;;8.85;3.35;;;;;;;9.87;82.78;100733.28;6111444;19;20018;-73
2023/03/22 08:07:02;;;;;;;10.15;3.15;;;;;;;9.87;82.79;100739.41;6107075;19;20579;-73
2023/03/22 08:09:10;;;;;;;8.25;3.90;;;;;;;9.77;82.60;100745.03;6104758;19;20018;-74
2023/03/22 08:11:15;;;;;;;9.88;3.40;;;;;;;9.73;83.95;100735.59;6102216;19;20090;-75
2023/03/22 08:13:20;;;;;;;9.82;2.63;;;;;;;9.73;84.17;100752.19;6100420;19;20614;-74
2023/03/22 08:15:24;;;;;;;6.43;2.40;;;;;;;9.64;84.18;100756.03;6099771;19;20015;-74
2023/03/22 08:17:30;;;;;;;13.68;3.55;;;;;;;9.57;85.16;100748.44;6097630;19;20018;-73
2023/03/22 08:19:35;;;;;;;10.50;3.15;;;;;;;9.55;84.84;100748.50;6099447;19;20015;-73
2023/03/22 08:21:40;;;;;;;10.63;2.75;;;;;;;9.50;85.29;100750.44;6099153;19;20014;-74
2023/03/22 08:23:46;;;;;;;15.55;4.43;;;;;;;9.49;85.86;100746.09;6097028;19;20515;-74
2023/03/22 08:25:55;;;;;;;15.85;3.75;;;;;;;9.45;86.36;100747.13;6096835;19;20017;-75
2023/03/22 08:28:00;;;;;;;12.95;4.30;;;;;;;9.54;86.76;100735.44;6095524;19;20566;-74
2023/03/22 08:30:06;;;;;;;17.38;5.07;;;;;;;9.47;86.99;100739.22;6098041;19;20010;-74
2023/03/22 08:32:11;;;;;;;15.38;3.47;;;;;;;9.45;87.42;100748.00;6098620;19;20014;-73
2023/03/22 08:34:16;;;;;;;8.77;4.00;;;;;;;9.40;87.59;100751.69;6094560;19;20018;-73
2023/03/22 08:36:24;;;;;;;9.07;4.20;;;;;;;9.45;87.70;100723.50;6097569;19;20089;-73
2023/03/22 08:38:29;;;;;;;12.23;3.70;;;;;;;9.43;87.33;100738.47;6096852;19;20020;-72
2023/03/22 08:40:34;;;;;;;12.40;4.07;;;;;;;9.40;87.55;100744.69;6098543;19;20014;-73
2023/03/22 08:42:42;;;;;;;12.40;3.40;;;;;;;9.41;87.89;100732.44;6098069;19;20006;-74
2023/03/22 08:44:47;;;;;;;11.98;3.88;;;;;;;9.34;88.00;100736.19;6098337;19;20011;-73
2023/03/22 08:46:51;;;;;;;12.23;3.53;;;;;;;9.35;88.42;100728.28;6096985;19;20007;-74
2023/03/22 08:48:59;;;;;;;10.68;4.00;;;;;;;9.42;88.56;100731.50;6101613;19;20042;-73
2023/03/22 08:51:05;;;;;;;11.02;3.75;;;;;;;9.37;88.74;100720.34;6097581;19;20098;-73
2023/03/22 08:53:10;;;;;;;17.60;4.50;;;;;;;9.36;88.68;100731.75;6097527;19;20209;-73
2023/03/22 08:55:16;;;;;;;14.88;4.10;;;;;;;9.32;88.80;100736.25;6097796;19;20032;-73
2023/03/22 08:57:22;;;;;;;11.20;3.33;;;;;;;9.41;88.45;100737.69;6097315;19;20010;-74
2023/03/22 08:59:29;;;;;;;9.63;3.70;;;;;;;9.36;89.16;100726.50;6097650;19;20031;-75
2023/03/22 09:01:34;;;;;;;11.30;3.67;;;;;;;9.35;89.00;100732.66;6096916;19;20030;-75
2023/03/22 09:03:40;;;;;;;11.75;3.67;;;;;;;9.34;89.10;100728.31;6097319;19;20015;-74
2023/03/22 09:05:45;;;;;;;14.43;4.30;;;;;;;9.30;89.56;100724.97;6100073;19;20102;-76
2023/03/22 09:07:53;;;;;;;12.30;4.13;;;;;;;9.31;88.96;100737.16;6096877;19;20039;-74
2023/03/22 09:10:00;;;;;;;11.18;3.88;;;;;;;9.31;89.50;100729.28;6095812;19;20015;-75
2023/03/22 09:12:04;;;;;;;21.20;4.10;;;;;;;9.33;89.08;100734.47;6097819;19;20021;-74
2023/03/22 09:14:09;;;;;;;16.60;3.60;;;;;;;9.32;89.21;100736.25;6097757;19;20023;-74
2023/03/22 09:16:17;;;;;;;21.85;4.25;;;;;;;9.32;89.17;100730.13;6098084;19;20011;-74
2023/03/22 09:18:23;;;;;;;9.50;3.53;;;;;;;9.36;89.50;100732.59;6093257;19;20038;-75
2023/03/22 09:20:27;;;;;;;11.82;3.92;;;;;;;9.34;89.55;100744.91;6096461;19;20090;-75
2023/03/22 09:22:33;;;;;;;10.63;3.75;;;;;;;9.41;89.52;100730.66;6097281;19;20017;-75
2023/03/22 09:24:38;;;;;;;11.88;4.13;;;;;;;9.45;89.47;100737.50;6095558;19;20017;-75
2023/03/22 09:26:44;;;;;;;13.25;3.80;;;;;;;9.43;89.50;100728.84;6096791;19;20014;-75
2023/03/22 09:28:51;;;;;;;11.98;4.68;;;;;;;9.42;89.47;100728.88;6097549;19;20072;-75
2023/03/22 09:30:56;;;;;;;13.20;4.55;;;;;;;9.39;89.27;100724.59;6097220;19;20019;-75
2023/03/22 09:33:03;;;;;;;11.85;4.25;;;;;;;9.39;89.56;100723.75;6096713;19;20028;-75
2023/03/22 09:35:09;;;;;;;12.98;4.03;;;;;;;9.41;89.24;100724.56;6097274;19;20493;-75
2023/03/22 09:37:16;;;;;;;12.98;4.15;;;;;;;9.43;89.37;100728.84;6097161;19;20666;-74
2023/03/22 09:39:22;;;;;;;8.10;4.07;;;;;;;9.45;90.25;100723.50;6096662;19;20019;-74
2023/03/22 09:41:36;;;;;;;14.35;4.30;;;;;;;9.47;89.57;100724.31;6096534;19;20022;-75
2023/03/22 09:43:45;;;;;;;15.00;4.88;;;;;;;9.55;89.84;100731.91;6098077;19;20026;-75
2023/03/22 09:45:53;;;;;;;10.98;4.22;;;;;;;9.57;89.92;100730.94;6096209;19;20021;-75
2023/03/22 09:47:59;;;;;;;11.50;4.65;;;;;;;9.54;89.30;100741.56;6096903;19;20042;-75
2023/03/22 09:50:14;;;;;;;14.70;4.20;;;;;;;9.52;89.07;100725.00;6096974;19;20023;-75
2023/03/22 09:52:19;;;;;;;11.77;4.47;;;;;;;9.52;89.61;100727.63;6095721;19;20014;-75
2023/03/22 09:54:32;;;;;;;12.10;4.50;;;;;;;9.54;89.02;100717.94;6096988;19;20039;-75